Home > Products > Valid Products > TAF

000
FTUS45 KGGW 231200 AAA
TAFGGW
TAF AMD
KGGW 231244Z 2313/2412 29019KT P6SM -SHRA BKN012
     FM231600 28021G31KT P6SM VCSH SCT030 OVC060
     FM240000 27018KT P6SM BKN100=



000
FTUS45 KGGW 231100
TAFGDV
TAF
KGDV 231132Z 2312/2412 11010KT P6SM BKN120
     FM231300 VRB05KT P6SM SCT035 BKN070
     FM231500 27020G30KT P6SM VCSH SCT025 BKN050
     FM240100 26012KT P6SM SCT100 BKN250
      AMD LTD TO CLD VIS AND WIND=



000
FTUS45 KGGW 231100
TAFOLF
TAF
KOLF 231132Z 2312/2412 10008KT P6SM BKN120
     FM231300 VRB06KT P6SM -SHRA SCT030 BKN060
     FM231500 29020KT P6SM -SHRA BKN045
     FM231800 29020G30KT P6SM VCSH BKN060
     FM240000 27017KT P6SM BKN100=



000
FTUS45 KGGW 231100
TAFGGW
TAF
KGGW 231132Z 2312/2412 VRB05KT P6SM SCT050 BKN090
     FM231300 26011KT P6SM -SHRA SCT025 OVC060
     FM231600 28021G31KT P6SM VCSH SCT030 OVC060
     FM240000 27018KT P6SM BKN100=



000
FTUS45 KGGW 231100
TAFSDY
TAF
KSDY 231132Z 2312/2412 14015KT P6SM BKN120
     FM231500 27016KT P6SM -SHRA SCT025 BKN060
     FM231800 28020G30KT P6SM VCSH BKN060
     FM240000 25012KT P6SM BKN100
      AMD LTD TO CLD VIS AND WIND=



000
FTUS45 KGGW 231000 AAB
TAFGGW
TAF AMD
KGGW 231008Z 2310/2406 VRB05KT P6SM SCT050 BKN090
     FM231200 26011KT P6SM -SHRA SCT025 OVC045
     FM231600 28023G31KT P6SM VCSH SCT030 OVC060
     FM240000 27018KT P6SM BKN250=



000
FTUS45 KGGW 230900 AAA
TAFGDV
TAF AMD
KGDV 230915Z 2309/2406 11018KT P6SM BKN120
     FM231300 03012KT 5SM -SHRA SCT025 BKN060
     FM231600 27020KT P6SM -SHRA SCT020 BKN050
     FM240100 26012KT P6SM SCT100 BKN250
      AMD LTD TO CLD VIS AND WIND=



000
FTUS45 KGGW 230900 AAB
TAFOLF
TAF AMD
KOLF 230911Z 2309/2406 08019G29KT P6SM BKN120
     FM231100 08016KT P6SM VCSH SCT050 BKN090
     FM231300 06013KT 5SM -SHRA SCT030 BKN060
     FM231600 29019KT 5SM -SHRA BKN045
     FM240000 27017KT P6SM OVC250=



000
FTUS45 KGGW 230900 AAA
TAFGGW
TAF AMD
KGGW 230909Z 2309/2406 12022KT P6SM VCSH SCT050 BKN090
     FM231200 01013KT 5SM -SHRA SCT025 OVC045
     FM231700 28023G31KT P6SM VCSH SCT030 OVC060
     FM240000 27018KT P6SM BKN250=



000
FTUS45 KGGW 230700 AAA
TAFSDY
TAF AMD
KSDY 230711Z 2307/2406 11015KT P6SM BKN120
     FM231000 07012KT P6SM VCSH SCT050 BKN090
     FM231200 08011KT 5SM -SHRA SCT030 BKN050
     FM231500 27016KT 5SM -SHRA SCT025 BKN060
     FM240000 25012KT P6SM BKN100
      AMD LTD TO CLD VIS AND WIND=



000
FTUS45 KGGW 230700 AAA
TAFOLF
TAF AMD
KOLF 230710Z 2307/2406 08019KT P6SM BKN120
     FM231000 08016KT P6SM VCSH SCT050 BKN090
     FM231200 06013KT 5SM -SHRA SCT030 BKN060
     FM231500 29019KT 5SM -SHRA BKN045
     FM240000 27017KT P6SM OVC250=



000
FTUS45 KGGW 230500
TAFOLF
TAF
KOLF 230533Z 2306/2406 11019KT P6SM BKN120
     FM231000 08016KT P6SM VCSH SCT050 BKN090
     FM231200 06013KT 5SM -SHRA SCT030 BKN060
     FM231500 29019KT 5SM -SHRA BKN045
     FM240000 27017KT P6SM OVC250=



000
FTUS45 KGGW 230500
TAFGDV
TAF
KGDV 230533Z 2306/2406 09015KT P6SM BKN120
     FM230900 07014KT P6SM BKN120
     FM231200 03012KT 5SM -SHRA SCT025 BKN060
     FM231500 27020KT P6SM -SHRA SCT020 BKN050
     FM240100 26012KT P6SM SCT100 BKN250
      AMD LTD TO CLD VIS AND WIND=



000
FTUS45 KGGW 230500
TAFSDY
TAF
KSDY 230533Z 2306/2406 11011KT P6SM BKN120
     FM231000 07012KT P6SM VCSH SCT050 BKN090
     FM231200 08011KT 5SM -SHRA SCT030 BKN050
     FM231500 27016KT 5SM -SHRA SCT025 BKN060
     FM240000 25012KT P6SM BKN100
      AMD LTD TO CLD VIS AND WIND=



000
FTUS45 KGGW 230500
TAFGGW
TAF
KGGW 230533Z 2306/2406 11024KT P6SM BKN120
     FM230900 08022KT P6SM VCSH SCT050 BKN090
     FM231100 01013KT 5SM -SHRA SCT025 OVC045
     FM231700 28023G31KT P6SM VCSH SCT030 OVC060
     FM240000 27018KT P6SM BKN250=



000
FTUS45 KGGW 222300
TAFGDV
TAF
KGDV 222320Z 2300/2324 12018KT P6SM BKN140
     FM230600 11014KT P6SM VCSH BKN190
     FM231200 VRB04KT P6SM VCSH BKN090
     FM231500 29020KT P6SM VCSH BKN060
      AMD LTD TO CLD VIS AND WIND=



000
FTUS45 KGGW 222300
TAFOLF
TAF
KOLF 222320Z 2300/2324 12019KT P6SM BKN140
     FM230600 10016KT 5SM -SHRA BKN090
     FM231200 VRB05KT 5SM -SHRA BKN060
     FM231500 29019KT 5SM -SHRA BKN045
     FM231800 28022G30KT P6SM VCSH OVC050=



000
FTUS45 KGGW 222300
TAFGGW
TAF
KGGW 222320Z 2300/2324 12022KT P6SM VCSH BKN140
     FM230600 10020KT 5SM -SHRA BKN090
     FM231200 30013KT 5SM -SHRA OVC045
     FM231800 28023G31KT P6SM VCSH OVC060=



000
FTUS45 KGGW 222300
TAFSDY
TAF
KSDY 222320Z 2300/2324 13020KT P6SM BKN140
     FM230600 12017KT 5SM -SHRA BKN090
     FM231200 VRB06KT 5SM -SHRA BKN090
     FM231500 28016KT 5SM -SHRA BKN060
     FM231800 28024G32KT P6SM VCSH OVC045
      AMD LTD TO CLD VIS AND WIND=



000
FTUS45 KGGW 221700
TAFGGW
TAF
KGGW 221720Z 2218/2318 12019G26KT P6SM SCT200
     FM230000 13020G28KT P6SM VCSH BKN140
     FM230600 11021KT 5SM -SHRA BKN090
     FM230900 10011KT 5SM -SHRA BKN090
     FM231500 28020KT 5SM -SHRA OVC035=



000
FTUS45 KGGW 221700
TAFGDV
TAF
KGDV 221720Z 2218/2318 13016G24KT P6SM BKN200
     FM230600 12016KT P6SM VCSH BKN190
     FM231200 29010KT P6SM VCSH BKN090
     FM231500 28018KT P6SM VCSH BKN060
      AMD NOT SKED=



000
FTUS45 KGGW 221700
TAFOLF
TAF
KOLF 221720Z 2218/2318 12017G23KT P6SM SCT210
     FM230000 12019G27KT P6SM BKN140
     FM230600 11017KT 5SM -SHRA BKN090
     FM231200 VRB06KT 5SM -SHRA BKN060
     FM231500 28016KT 5SM -SHRA BKN045=



000
FTUS45 KGGW 221700
TAFSDY
TAF
KSDY 221720Z 2218/2318 13019G26KT P6SM SCT210
     FM230000 13021G29KT P6SM BKN140
     FM230600 12018KT 5SM -SHRA BKN090
     FM231200 VRB05KT P6SM VCSH BKN090
     FM231500 27015KT P6SM VCSH BKN060
      AMD LTD TO CLD VIS AND WIND=



000
FTUS45 KGGW 221100
TAFOLF
TAF
KOLF 221127Z 2212/2312 07006KT P6SM BKN150
     FM221400 09012KT P6SM FEW100 BKN200
     FM221700 11017KT P6SM BKN200
     FM222300 13018G28KT P6SM BKN100
     FM230600 09020G31KT P6SM -SHRA OVC050=



000
FTUS45 KGGW 221100
TAFGGW
TAF
KGGW 221127Z 2212/2312 10015KT P6SM BKN150
     FM221400 13019G29KT P6SM FEW120 BKN200
     FM222200 14020G31KT P6SM BKN100
     FM230300 10025G35KT P6SM -SHRA OVC050=



000
FTUS45 KGGW 221100
TAFGDV
TAF
KGDV 221127Z 2212/2312 06006KT P6SM BKN150
     FM221600 15015G25KT P6SM SCT100 BKN200
     FM222300 13020G30KT P6SM BKN120
     FM230500 10017KT P6SM BKN060
      AMD LTD TO CLD VIS AND WIND=



000
FTUS45 KGGW 221100
TAFSDY
TAF
KSDY 221127Z 2212/2312 VRB05KT P6SM BKN150
     FM221400 14015KT P6SM FEW100 BKN200
     FM221700 15018G25KT P6SM BKN200
     FM222200 14020G30KT P6SM BKN120
     FM230600 11015G25KT P6SM -SHRA OVC060
      AMD LTD TO CLD VIS AND WIND=



000
FTUS45 KGGW 220500
TAFGGW
TAF
KGGW 220527Z 2206/2306 10012KT P6SM BKN120
     FM221300 13019G28KT P6SM FEW120 SCT250
     FM222200 14023G31KT P6SM BKN150
     FM230200 10027G35KT P6SM VCTS SCT070CB BKN110=



000
FTUS45 KGGW 220500
TAFGDV
TAF
KGDV 220527Z 2206/2306 10006KT P6SM BKN150
     FM221600 15015G23KT P6SM FEW120 SCT200
     FM222300 13023G29KT P6SM SCT120 BKN200
     FM230300 11019G26KT P6SM VCTS SCT090CB BKN120
      AMD LTD TO CLD VIS AND WIND=



000
FTUS45 KGGW 220500
TAFOLF
TAF
KOLF 220527Z 2206/2306 07006KT P6SM BKN120
     FM221300 09012KT P6SM FEW150 SCT250
     FM221700 11013G19KT P6SM FEW250
     FM222200 13018G26KT P6SM SCT150 BKN250
     FM230300 09023G31KT P6SM VCTS BKN090CB=



000
FTUS45 KGGW 220500
TAFSDY
TAF
KSDY 220527Z 2206/2306 VRB05KT P6SM BKN120
     FM221400 14012KT P6SM FEW150 SCT250
     FM221700 15018G25KT P6SM SCT200 BKN250
     FM222200 14023G30KT P6SM SCT150 BKN250
     FM230300 12015G25KT P6SM VCTS SCT090CB BKN120
      AMD LTD TO CLD VIS AND WIND=



000
FTUS45 KGGW 212300
TAFGGW
TAF
KGGW 212320Z 2200/2224 VRB05KT P6SM SKC
     FM220600 11011KT P6SM BKN150
     FM221300 11015G25KT P6SM SCT150=



000
FTUS45 KGGW 212300
TAFSDY
TAF
KSDY 212320Z 2200/2224 VRB05KT P6SM SKC
     FM221200 13010KT P6SM SCT150
     FM221800 12015G24KT P6SM BKN150
      AMD LTD TO CLD VIS AND WIND=



000
FTUS45 KGGW 212300
TAFOLF
TAF
KOLF 212320Z 2200/2224 VRB06KT P6SM SKC
     FM220600 08008KT P6SM SCT150
     FM221300 10012G18KT P6SM BKN150=



000
FTUS45 KGGW 212300
TAFGDV
TAF
KGDV 212320Z 2200/2224 VRB05KT P6SM FEW250
     FM221300 12009KT P6SM SCT150
     FM221800 12014G22KT P6SM BKN150
      AMD LTD TO CLD VIS AND WIND=



000
FTUS45 KGGW 211700
TAFOLF
TAF
KOLF 211720Z 2118/2218 VRB06KT P6SM FEW250
     FM220600 08008KT P6SM BKN150=



000
FTUS45 KGGW 211700
TAFGDV
TAF
KGDV 211720Z 2118/2218 VRB05KT P6SM FEW250
     FM221300 12009KT P6SM BKN150
      AMD LTD TO CLD VIS AND WIND=



000
FTUS45 KGGW 211700
TAFSDY
TAF
KSDY 211720Z 2118/2218 VRB05KT P6SM FEW250
     FM221200 13010KT P6SM BKN150
      AMD LTD TO CLD VIS AND WIND=



000
FTUS45 KGGW 211700
TAFGGW
TAF
KGGW 211720Z 2118/2218 VRB05KT P6SM FEW250
     FM220600 11011KT P6SM BKN150=



000
FTUS45 KGGW 211100
TAFOLF
TAF
KOLF 211127Z 2112/2212 VRB06KT P6SM SCT200
     FM220200 07007KT P6SM SCT150=



000
FTUS45 KGGW 211100
TAFGDV
TAF
KGDV 211127Z 2112/2212 VRB05KT P6SM SCT200
     FM211700 27007KT P6SM SCT150
     FM220200 09007KT P6SM SKC
      AMD LTD TO CLD VIS AND WIND=



000
FTUS45 KGGW 211100
TAFGGW
TAF
KGGW 211127Z 2112/2212 VRB05KT P6SM SCT200
     FM220230 11011KT P6SM BKN150=



000
FTUS45 KGGW 211100
TAFSDY
TAF
KSDY 211127Z 2112/2212 VRB05KT P6SM SCT010 SCT200
      TEMPO 2112/2115 BKN010
     FM211700 26008KT P6SM SCT200
     FM220400 11007KT P6SM SCT150
      AMD LTD TO CLD VIS AND WIND=



000
FTUS45 KGGW 210500
TAFGDV
TAF
KGDV 210520Z 2106/2206 VRB05KT P6SM SCT250
     FM211700 27007KT P6SM SCT150
     FM220200 09007KT P6SM SKC
      AMD LTD TO CLD VIS AND WIND=



000
FTUS45 KGGW 210500
TAFOLF
TAF
KOLF 210520Z 2106/2206 VRB06KT P6SM SCT250=



000
FTUS45 KGGW 210500
TAFSDY
TAF
KSDY 210520Z 2106/2206 VRB05KT P6SM SCT250
     FM220400 12007KT P6SM SCT150
      AMD LTD TO CLD VIS AND WIND=



000
FTUS45 KGGW 210500
TAFGGW
TAF
KGGW 210520Z 2106/2206 VRB05KT P6SM SCT250
     FM220230 11011KT P6SM BKN150=



000
FTUS45 KGGW 202300
TAFSDY
TAF
KSDY 202320Z 2100/2124 29019G29KT P6SM FEW100
     FM210300 31007KT P6SM SKC
      AMD LTD TO CLD VIS AND WIND=



000
FTUS45 KGGW 202300
TAFGDV
TAF
KGDV 202320Z 2100/2124 30015G25KT P6SM SCT100
     FM210300 33007KT P6SM SKC
      AMD LTD TO CLD VIS AND WIND=



000
FTUS45 KGGW 202300
TAFGGW
TAF
KGGW 202320Z 2100/2124 29020G30KT P6SM FEW100
     FM210200 30009KT P6SM SKC=



000
FTUS45 KGGW 202300
TAFOLF
TAF
KOLF 202320Z 2100/2124 28018G28KT P6SM FEW100
     FM210300 29011KT P6SM SKC=



000
FTUS45 KGGW 201700
TAFOLF
TAF
KOLF 201720Z 2018/2118 28025G32KT P6SM FEW100
     FM210300 29011KT P6SM SKC=



000
FTUS45 KGGW 201700
TAFGDV
TAF
KGDV 201720Z 2018/2118 30020G32KT P6SM SCT100
     FM210200 27014KT P6SM SKC
     FM210800 33007KT P6SM SKC
      AMD LTD TO CLD VIS AND WIND=



000
FTUS45 KGGW 201700
TAFGGW
TAF
KGGW 201720Z 2018/2118 29025G40KT P6SM FEW100
     FM210200 30009KT P6SM SKC=



000
FTUS45 KGGW 201700
TAFSDY
TAF
KSDY 201720Z 2018/2118 29023G32KT P6SM FEW100
     FM210200 30014KT P6SM SKC
     FM210800 31007KT P6SM SKC
      AMD LTD TO CLD VIS AND WIND=



    US Dept of Commerce
    National Oceanic and Atmospheric Administration
    National Weather Service
    1325 East West Highway
    Silver Spring, MD 20910
    Page Author: NWS Internet Services Team
Disclaimer
Information Quality
Credits
Glossary
Privacy Policy
Freedom of Information Act (FOIA)
About Us
Career Opportunities